首页
METAR-TAF:

METAR-TAF

机场 :

的里雅斯特 / Ronchi dei Legionari, 意大利

纬度: 45-49N, 经度: 013-29E, 海拔: 12米

当前天气观测

该预报发布于34分钟前的09:20 UTC
风速3节,风向西
温度 14°C
湿度 55%
气压 1013 hPa
能见度10公里或以上

METAR: LIPQ 290920Z AUTO 26003KT 9999 BKN089/// 14/05 Q1013

时间: 11:54 (09:54 UTC)

预报

该预报发布于4小时和26分钟前的05:28 UTC
预报有效从29日的 06点(UTC)到 30日的 06点(UTC)
风速5节,风向多变
能见度10公里或以上
散云层高于4000英尺
成为
从 30日的 02点(UTC)到 30日的 04点(UTC)
风速15节,风向东北

TAF: LIPQ 290528Z 2906/3006 VRB05KT 9999 SCT040 BECMG 3002/3004 05015KT

超过4000个机场的气象观测和天气预报(METAR&TAF报告)。

可查询的气象台以黄色和红色小点在地图上表示。

将鼠标移到小点上方,可查看气象台名称。

然后点击查看天气观测和预报。

如需切换地图:点击带黑十字的绿色按钮放大地图;点击带横线的绿色按钮缩小地图;或者点击绿色箭头查看邻近地区的地图。


METAR-TAF: